Time;durP1;ratioP1;P1;durP2;ratioP2;P2;SDS_P1;SDS_P2;PMS_P1;PMS_P2;Temp;Humidity;BMP_temperature;BMP_pressure;BME280_temperature;BME280_humidity;BME280_pressure;Samples;Min_cycle;Max_cycle;Signal;HPM_P1;HPM_P2
2023/08/07 05:19:43;;;;;;;;;;;;;;;;;;5001227;28;20308;-39
2023/08/07 05:22:09;;;;;;;;;;;;;;;;;;5009196;28;19913;-39
2023/08/07 05:24:38;;;;;;;;;;;;;;;;;;5010107;28;19910;-39
2023/08/07 05:27:04;;;;;;;;;;;;;;;;;;4990578;28;20514;-39
2023/08/07 05:29:30;;;;;;;;;;;;;;;;;;4999715;28;20004;-39
2023/08/07 05:31:56;;;;;;;;;;;;;;;;;;5010462;28;19917;-39
2023/08/07 05:34:22;;;;;;;;;;;;;;;;;;5010545;28;19914;-39
2023/08/07 05:36:48;;;;;;;;;;;;;;;;;;5008930;28;20437;-39
2023/08/07 05:39:14;;;;;;;;;;;;;;;;;;5010107;28;19960;-39
2023/08/07 05:41:40;;;;;;;;;;;;;;;;;;5009972;28;19910;-39
2023/08/07 05:44:06;;;;;;;;;;;;;;;;;;5010469;28;20011;-39
2023/08/07 05:46:32;;;;;;;;;;;;;;;;;;5010396;28;19913;-39
2023/08/07 05:48:58;;;;;;;;;;;;;;;;;;5009906;28;20277;-39
2023/08/07 05:51:24;;;;;;;;;;;;;;;;;;5008881;28;19913;-39
2023/08/07 05:53:50;;;;;;;;;;;;;;;;;;5009533;28;19952;-39
2023/08/07 05:56:17;;;;;;;;;;;;;;;;;;5010868;28;19923;-40
2023/08/07 05:58:43;;;;;;;;;;;;;;;;;;5010300;28;19968;-39
2023/08/07 06:01:09;;;;;;;;;;;;;;;;;;5005999;28;19917;-40
2023/08/07 06:03:35;;;;;;;;;;;;;;;;;;5012529;28;19917;-40
2023/08/07 06:06:01;;;;;;;;;;;;;;;;;;5014192;28;20344;-39
2023/08/07 06:08:27;;;;;;;;;;;;;;;;;;5008937;28;19920;-40
2023/08/07 06:10:53;;;;;;;;;;;;;;;;;;5013398;28;19909;-39
2023/08/07 06:13:19;;;;;;;;;;;;;;;;;;5015615;28;20406;-39
2023/08/07 06:15:45;;;;;;;;;;;;;;;;;;5014917;28;19914;-39
2023/08/07 06:18:11;;;;;;;;;;;;;;;;;;5016231;28;19929;-39
2023/08/07 06:20:36;;;;;;;;;;;;;;;;;;5014591;28;19918;-39
2023/08/07 06:23:02;;;;;;;;;;;;;;;;;;5014848;28;19914;-39
2023/08/07 06:25:28;;;;;;;;;;;;;;;;;;5014313;28;19913;-39
2023/08/07 06:27:54;;;;;;;;;;;;;;;;;;5014242;28;19913;-39
2023/08/07 06:30:20;;;;;;;;;;;;;;;;;;5014364;28;19920;-39
2023/08/07 06:32:46;;;;;;;;;;;;;;;;;;5014566;28;19910;-39
2023/08/07 06:35:12;;;;;;;;;;;;;;;;;;5023779;28;19936;-39
2023/08/07 06:37:38;;;;;;;;;;;;;;;;;;5022606;28;19917;-40
2023/08/07 06:40:05;;;;;;;;;;;;;;;;;;5013084;28;19957;-39
2023/08/07 06:42:30;;;;;;;;;;;;;;;;;;5012537;28;20430;-40
2023/08/07 06:44:56;;;;;;;;;;;;;;;;;;5008854;28;19918;-41
2023/08/07 06:47:22;;;;;;;;;;;;;;;;;;5011983;28;19964;-39
2023/08/07 06:49:48;;;;;;;;;;;;;;;;;;5014292;28;19914;-41
2023/08/07 06:52:14;;;;;;;;;;;;;;;;;;5013353;28;19936;-40
2023/08/07 06:54:40;;;;;;;;;;;;;;;;;;5012326;28;20282;-40
2023/08/07 06:57:06;;;;;;;;;;;;;;;;;;5012129;28;20243;-40
2023/08/07 06:59:32;;;;;;;;;;;;;;;;;;5011994;28;19979;-40
2023/08/07 07:01:58;;;;;;;;;;;;;;;;;;5015146;28;19999;-40
2023/08/07 07:04:24;;;;;;;;;;;;;;;;;;5028401;28;20384;-42
2023/08/07 07:06:49;;;;;;;;;;;;;;;;;;5018095;28;19917;-40
2023/08/07 07:09:16;;;;;;;;;;;;;;;;;;5011614;28;19928;-41
2023/08/07 07:11:42;;;;;;;;;;;;;;;;;;5011244;28;19913;-40
2023/08/07 07:14:07;;;;;;;;;;;;;;;;;;5011978;28;19940;-40
2023/08/07 07:16:33;;;;;;;;;;;;;;;;;;5006509;28;20055;-42
2023/08/07 07:18:59;;;;;;;;;;;;;;;;;;4992696;28;19963;-41
2023/08/07 07:21:25;;;;;;;;;;;;;;;;;;4993117;28;20653;-40
2023/08/07 07:23:51;;;;;;;;;;;;;;;;;;4992932;28;19964;-40
2023/08/07 07:26:17;;;;;;;;;;;;;;;;;;4992923;28;19957;-40
2023/08/07 07:28:43;;;;;;;;;;;;;;;;;;4998426;28;20257;-40
2023/08/07 07:31:11;;;;;;;;;;;;;;;;;;5012426;28;19909;-40
2023/08/07 07:33:39;;;;;;;;;;;;;;;;;;5012776;28;19909;-40
2023/08/07 07:36:05;;;;;;;;;;;;;;;;;;5012574;28;19918;-40
2023/08/07 07:38:31;;;;;;;;;;;;;;;;;;5012056;28;19916;-40
2023/08/07 07:40:57;;;;;;;;;;;;;;;;;;5012193;28;19913;-40
2023/08/07 07:43:23;;;;;;;;;;;;;;;;;;5012002;28;19910;-41
2023/08/07 07:45:49;;;;;;;;;;;;;;;;;;5012179;28;20399;-40
2023/08/07 07:48:15;;;;;;;;;;;;;;;;;;5011926;28;19918;-41
2023/08/07 07:50:41;;;;;;;;;;;;;;;;;;5012172;28;19909;-41
2023/08/07 07:53:07;;;;;;;;;;;;;;;;;;5011012;28;19909;-40
2023/08/07 07:55:34;;;;;;;;;;;;;;;;;;5012100;28;19947;-40
2023/08/07 07:58:00;;;;;;;;;;;;;;;;;;5011952;28;19913;-40
2023/08/07 08:00:27;;;;;;;;;;;;;;;;;;5011448;28;19914;-40
2023/08/07 08:02:53;;;;;;;;;;;;;;;;;;5011832;28;19909;-41
2023/08/07 08:05:19;;;;;;;;;;;;;;;;;;5005136;28;19917;-41
2023/08/07 08:07:45;;;;;;;;;;;;;;;;;;4991905;28;19910;-42
2023/08/07 08:10:12;;;;;;;;;;;;;;;;;;5006007;28;19921;-40
2023/08/07 08:12:37;;;;;;;;;;;;;;;;;;5011319;28;19915;-40
2023/08/07 08:15:03;;;;;;;;;;;;;;;;;;5010233;28;20460;-40
2023/08/07 08:17:29;;;;;;;;;;;;;;;;;;5010851;28;19917;-40
2023/08/07 08:19:55;;;;;;;;;;;;;;;;;;4996466;28;19968;-40
2023/08/07 08:22:21;;;;;;;;;;;;;;;;;;5010544;28;20008;-40
2023/08/07 08:24:50;;;;;;;;;;;;;;;;;;5011045;28;19913;-40
2023/08/07 08:27:17;;;;;;;;;;;;;;;;;;5010002;28;19925;-40
2023/08/07 08:29:43;;;;;;;;;;;;;;;;;;5010536;28;20347;-41
2023/08/07 08:32:09;;;;;;;;;;;;;;;;;;5011615;28;19910;-41
2023/08/07 08:34:35;;;;;;;;;;;;;;;;;;5011331;28;19921;-41
2023/08/07 08:37:01;;;;;;;;;;;;;;;;;;5010326;28;20051;-41
2023/08/07 08:39:27;;;;;;;;;;;;;;;;;;5009288;28;19913;-41
2023/08/07 08:41:52;;;;;;;;;;;;;;;;;;5007231;28;19917;-41
2023/08/07 08:44:18;;;;;;;;;;;;;;;;;;5010726;28;19913;-40
2023/08/07 08:46:44;;;;;;;;;;;;;;;;;;5011118;28;19917;-40
2023/08/07 08:49:10;;;;;;;;;;;;;;;;;;5008981;28;19917;-40
2023/08/07 08:51:36;;;;;;;;;;;;;;;;;;5021290;28;20272;-40
2023/08/07 08:54:02;;;;;;;;;;;;;;;;;;5009689;28;20016;-41
2023/08/07 08:56:28;;;;;;;;;;;;;;;;;;5016007;28;19913;-40
2023/08/07 08:58:54;;;;;;;;;;;;;;;;;;5011726;28;19913;-41
2023/08/07 09:01:20;;;;;;;;;;;;;;;;;;5017211;28;19913;-40
2023/08/07 09:03:46;;;;;;;;;;;;;;;;;;5020486;28;19925;-41
2023/08/07 09:06:12;;;;;;;;;;;;;;;;;;5021054;28;19923;-40
2023/08/07 09:08:38;;;;;;;;;;;;;;;;;;5014985;28;19917;-41
2023/08/07 09:11:04;;;;;;;;;;;;;;;;;;5010088;28;19927;-41
2023/08/07 09:13:30;;;;;;;;;;;;;;;;;;5010539;28;20406;-40
2023/08/07 09:15:56;;;;;;;;;;;;;;;;;;5010553;28;19940;-41
2023/08/07 09:18:22;;;;;;;;;;;;;;;;;;4995130;28;19919;-40
2023/08/07 09:20:48;;;;;;;;;;;;;;;;;;5000507;28;19924;-41
2023/08/07 09:23:14;;;;;;;;;;;;;;;;;;5010587;28;19916;-41
2023/08/07 09:25:39;;;;;;;;;;;;;;;;;;5012023;28;19917;-41
2023/08/07 09:28:05;;;;;;;;;;;;;;;;;;5010803;28;19999;-41
2023/08/07 09:30:31;;;;;;;;;;;;;;;;;;5009772;28;20008;-41
2023/08/07 09:32:57;;;;;;;;;;;;;;;;;;5009727;28;19949;-41
2023/08/07 09:35:23;;;;;;;;;;;;;;;;;;5010342;28;19933;-40
2023/08/07 09:37:49;;;;;;;;;;;;;;;;;;5009756;28;19913;-41
2023/08/07 09:40:16;;;;;;;;;;;;;;;;;;5014288;28;20347;-40
2023/08/07 09:42:42;;;;;;;;;;;;;;;;;;5023966;28;20342;-42
2023/08/07 09:45:08;;;;;;;;;;;;;;;;;;5015718;28;19914;-41
2023/08/07 09:47:33;;;;;;;;;;;;;;;;;;5014758;28;19979;-41
2023/08/07 09:49:59;;;;;;;;;;;;;;;;;;5018033;28;19921;-41
2023/08/07 09:52:26;;;;;;;;;;;;;;;;;;5017673;28;20348;-40
2023/08/07 09:54:52;;;;;;;;;;;;;;;;;;5023757;28;19921;-41
2023/08/07 09:57:17;;;;;;;;;;;;;;;;;;5017084;28;19909;-41
2023/08/07 09:59:43;;;;;;;;;;;;;;;;;;5014565;28;19910;-41
2023/08/07 10:02:11;;;;;;;;;;;;;;;;;;5014399;28;19914;-40
2023/08/07 10:04:37;;;;;;;;;;;;;;;;;;5016184;28;19913;-40
2023/08/07 10:07:03;;;;;;;;;;;;;;;;;;5015615;28;19913;-41
2023/08/07 10:09:28;;;;;;;;;;;;;;;;;;5015053;28;20048;-40
2023/08/07 10:11:54;;;;;;;;;;;;;;;;;;5013890;28;20265;-40
2023/08/07 10:14:20;;;;;;;;;;;;;;;;;;5013636;28;19913;-40
2023/08/07 10:16:46;;;;;;;;;;;;;;;;;;5014623;28;20055;-40
2023/08/07 10:19:12;;;;;;;;;;;;;;;;;;5014058;28;19914;-41
2023/08/07 10:21:38;;;;;;;;;;;;;;;;;;5013520;28;19971;-40
2023/08/07 10:24:04;;;;;;;;;;;;;;;;;;5013927;28;20009;-40
2023/08/07 10:26:30;;;;;;;;;;;;;;;;;;5014695;28;19918;-40
2023/08/07 10:28:55;;;;;;;;;;;;;;;;;;5015084;28;19988;-40
2023/08/07 10:31:21;;;;;;;;;;;;;;;;;;5013474;28;19956;-40
2023/08/07 10:33:47;;;;;;;;;;;;;;;;;;5013538;28;20296;-40
2023/08/07 10:36:13;;;;;;;;;;;;;;;;;;5015573;28;19917;-40
2023/08/07 10:38:39;;;;;;;;;;;;;;;;;;5022131;28;20271;-41
2023/08/07 10:43:41;;;;;;;;;;;;;;;;;;5138780;23;19934;-45
2023/08/07 10:46:07;;;;;;;;;;;;;;;;;;4994362;28;19914;-46
2023/08/07 10:48:33;;;;;;;;;;;;;;;;;;4992657;28;19921;-47
2023/08/07 10:51:00;;;;;;;;;;;;;;;;;;4963153;28;19914;-47
2023/08/07 10:53:25;;;;;;;;;;;;;;;;;;4975570;28;19929;-46
2023/08/07 10:55:51;;;;;;;;;;;;;;;;;;4971951;28;19913;-46
2023/08/07 10:58:17;;;;;;;;;;;;;;;;;;4972008;28;20005;-45
2023/08/07 11:00:43;;;;;;;;;;;;;;;;;;4975342;28;20415;-46
2023/08/07 11:03:09;;;;;;;;;;;;;;;;;;4988543;28;19969;-47
2023/08/07 11:05:35;;;;;;;;;;;;;;;;;;4982547;28;20016;-45
2023/08/07 11:08:01;;;;;;;;;;;;;;;;;;4977169;28;19914;-45
2023/08/07 11:10:27;;;;;;;;;;;;;;;;;;4977243;28;19918;-45
2023/08/07 11:12:53;;;;;;;;;;;;;;;;;;4975306;28;19914;-47
2023/08/07 11:15:19;;;;;;;;;;;;;;;;;;4974364;28;19914;-45
2023/08/07 11:17:46;;;;;;;;;;;;;;;;;;4972539;28;19937;-45
2023/08/07 11:20:12;;;;;;;;;;;;;;;;;;4969771;28;19925;-45
2023/08/07 11:22:37;;;;;;;;;;;;;;;;;;4974246;28;19918;-46
2023/08/07 11:25:03;;;;;;;;;;;;;;;;;;4972238;28;19947;-47
2023/08/07 11:27:29;;;;;;;;;;;;;;;;;;4973989;28;19921;-47
2023/08/07 11:29:55;;;;;;;;;;;;;;;;;;4977374;28;19992;-46
2023/08/07 11:32:21;;;;;;;;;;;;;;;;;;4975646;28;19976;-45
2023/08/07 11:34:47;;;;;;;;;;;;;;;;;;4975858;28;19921;-44
2023/08/07 11:37:13;;;;;;;;;;;;;;;;;;4973838;28;19914;-46
2023/08/07 11:39:38;;;;;;;;;;;;;;;;;;4974138;28;20005;-46
2023/08/07 11:42:04;;;;;;;;;;;;;;;;;;4974285;28;20000;-45
2023/08/07 11:44:30;;;;;;;;;;;;;;;;;;4974356;28;19914;-45
2023/08/07 11:46:56;;;;;;;;;;;;;;;;;;4957001;28;19914;-45
2023/08/07 11:49:23;;;;;;;;;;;;;;;;;;4956751;28;19961;-44
2023/08/07 11:51:49;;;;;;;;;;;;;;;;;;4973604;28;19910;-45
2023/08/07 11:54:15;;;;;;;;;;;;;;;;;;4966081;28;19914;-46
2023/08/07 11:56:42;;;;;;;;;;;;;;;;;;4963109;28;20052;-44
2023/08/07 11:59:08;;;;;;;;;;;;;;;;;;4974319;28;19922;-46
2023/08/07 12:01:34;;;;;;;;;;;;;;;;;;4969998;28;19914;-45
2023/08/07 12:04:00;;;;;;;;;;;;;;;;;;4973535;28;20333;-45
2023/08/07 12:06:26;;;;;;;;;;;;;;;;;;4981143;28;19957;-45
2023/08/07 12:08:52;;;;;;;;;;;;;;;;;;4967269;28;19921;-45
2023/08/07 12:11:18;;;;;;;;;;;;;;;;;;4956416;28;19914;-46
2023/08/07 12:13:44;;;;;;;;;;;;;;;;;;4956198;28;19937;-45
2023/08/07 12:16:15;;;;;;;;;;;;;;;;;;4973581;28;19945;-46
2023/08/07 12:18:41;;;;;;;;;;;;;;;;;;4984229;28;19914;-46
2023/08/07 12:21:06;;;;;;;;;;;;;;;;;;4972468;28;19957;-45
2023/08/07 12:23:32;;;;;;;;;;;;;;;;;;4971744;28;19914;-45
2023/08/07 12:25:58;;;;;;;;;;;;;;;;;;4972264;28;19918;-48
2023/08/07 12:28:24;;;;;;;;;;;;;;;;;;4972493;28;20420;-46
2023/08/07 12:30:50;;;;;;;;;;;;;;;;;;4974537;28;20004;-45
2023/08/07 12:33:16;;;;;;;;;;;;;;;;;;4974698;28;19917;-46
2023/08/07 12:35:42;;;;;;;;;;;;;;;;;;4972730;28;20025;-45
2023/08/07 12:38:09;;;;;;;;;;;;;;;;;;4975732;28;19920;-49
2023/08/07 12:40:37;;;;;;;;;;;;;;;;;;4955071;28;20274;-48
2023/08/07 12:43:03;;;;;;;;;;;;;;;;;;4973007;28;20109;-45
2023/08/07 12:45:29;;;;;;;;;;;;;;;;;;4973063;28;19910;-46
2023/08/07 12:47:55;;;;;;;;;;;;;;;;;;4979984;28;19918;-45
2023/08/07 12:50:21;;;;;;;;;;;;;;;;;;4978431;28;20381;-45
2023/08/07 12:52:47;;;;;;;;;;;;;;;;;;4973135;28;19961;-47
2023/08/07 12:55:13;;;;;;;;;;;;;;;;;;4972258;28;19921;-45
2023/08/07 12:57:39;;;;;;;;;;;;;;;;;;4971422;28;19914;-45
2023/08/07 13:00:05;;;;;;;;;;;;;;;;;;4972221;28;20008;-49
2023/08/07 13:02:31;;;;;;;;;;;;;;;;;;4973820;28;19914;-45
2023/08/07 13:04:57;;;;;;;;;;;;;;;;;;4973776;28;19918;-47
2023/08/07 13:07:24;;;;;;;;;;;;;;;;;;4973100;28;19971;-46
2023/08/07 13:09:50;;;;;;;;;;;;;;;;;;4971531;28;19914;-44
2023/08/07 13:12:16;;;;;;;;;;;;;;;;;;4970686;28;20045;-45
2023/08/07 13:14:42;;;;;;;;;;;;;;;;;;4972202;28;21119;-46
2023/08/07 13:17:08;;;;;;;;;;;;;;;;;;4972597;28;19922;-45
2023/08/07 13:19:36;;;;;;;;;;;;;;;;;;4971086;28;20079;-47
2023/08/07 13:22:02;;;;;;;;;;;;;;;;;;4971653;28;19910;-45
2023/08/07 13:24:27;;;;;;;;;;;;;;;;;;4971703;28;19918;-45
2023/08/07 13:26:53;;;;;;;;;;;;;;;;;;4971697;28;19918;-47
2023/08/07 13:29:19;;;;;;;;;;;;;;;;;;4971096;28;19953;-45
2023/08/07 13:31:46;;;;;;;;;;;;;;;;;;4985836;28;20393;-45
2023/08/07 13:34:12;;;;;;;;;;;;;;;;;;4983735;28;20005;-44
2023/08/07 13:36:38;;;;;;;;;;;;;;;;;;4979538;28;19953;-46
2023/08/07 13:39:04;;;;;;;;;;;;;;;;;;4975001;28;19945;-47
2023/08/07 13:41:30;;;;;;;;;;;;;;;;;;4976653;28;19914;-45
2023/08/07 13:43:56;;;;;;;;;;;;;;;;;;4972932;28;20290;-46
2023/08/07 13:46:22;;;;;;;;;;;;;;;;;;4989291;28;19918;-47
2023/08/07 13:48:48;;;;;;;;;;;;;;;;;;4971418;28;19910;-45
2023/08/07 13:51:14;;;;;;;;;;;;;;;;;;4970743;28;19914;-47
2023/08/07 13:53:40;;;;;;;;;;;;;;;;;;4969879;28;20377;-46
2023/08/07 13:56:07;;;;;;;;;;;;;;;;;;4954177;28;19911;-46
2023/08/07 13:58:32;;;;;;;;;;;;;;;;;;4967223;28;19949;-46
2023/08/07 14:00:59;;;;;;;;;;;;;;;;;;4969868;28;19910;-45
2023/08/07 14:03:25;;;;;;;;;;;;;;;;;;4971156;28;20429;-47
2023/08/07 14:05:51;;;;;;;;;;;;;;;;;;4950752;29;20001;-47
2023/08/07 14:08:17;;;;;;;;;;;;;;;;;;4958283;28;20008;-45
2023/08/07 14:10:43;;;;;;;;;;;;;;;;;;4968266;28;19989;-45
2023/08/07 14:13:09;;;;;;;;;;;;;;;;;;4971631;28;19910;-49
2023/08/07 14:15:35;;;;;;;;;;;;;;;;;;4972219;28;20009;-47
2023/08/07 14:18:01;;;;;;;;;;;;;;;;;;4971859;28;19949;-46
2023/08/07 14:20:27;;;;;;;;;;;;;;;;;;4971870;28;19914;-48
2023/08/07 14:22:53;;;;;;;;;;;;;;;;;;4971998;28;19914;-46
2023/08/07 14:25:21;;;;;;;;;;;;;;;;;;4973734;28;19911;-47
2023/08/07 14:27:47;;;;;;;;;;;;;;;;;;4971318;28;19926;-48
2023/08/07 14:30:13;;;;;;;;;;;;;;;;;;4975138;28;19934;-49
2023/08/07 14:32:38;;;;;;;;;;;;;;;;;;4957899;28;19953;-45
2023/08/07 14:35:04;;;;;;;;;;;;;;;;;;4975083;28;19910;-45
2023/08/07 14:37:30;;;;;;;;;;;;;;;;;;4975080;28;19914;-47
2023/08/07 14:39:56;;;;;;;;;;;;;;;;;;4975045;28;19918;-45
2023/08/07 14:42:22;;;;;;;;;;;;;;;;;;4975076;28;19980;-45
2023/08/07 14:44:48;;;;;;;;;;;;;;;;;;4973703;28;19910;-45
2023/08/07 14:47:14;;;;;;;;;;;;;;;;;;4974389;28;19918;-46
2023/08/07 14:49:40;;;;;;;;;;;;;;;;;;4973943;28;20305;-47
2023/08/07 14:52:05;;;;;;;;;;;;;;;;;;4975237;28;19914;-48
2023/08/07 14:54:31;;;;;;;;;;;;;;;;;;4983356;28;20364;-48
2023/08/07 14:56:58;;;;;;;;;;;;;;;;;;4981984;28;19914;-47
2023/08/07 14:59:24;;;;;;;;;;;;;;;;;;4974712;28;19960;-46
2023/08/07 15:01:50;;;;;;;;;;;;;;;;;;4982010;28;20361;-46
2023/08/07 15:04:16;;;;;;;;;;;;;;;;;;4990142;28;19957;-47
2023/08/07 15:06:42;;;;;;;;;;;;;;;;;;4974576;28;20027;-46
2023/08/07 15:09:08;;;;;;;;;;;;;;;;;;4987225;28;19929;-48
2023/08/07 15:11:33;;;;;;;;;;;;;;;;;;4976167;28;19917;-48
2023/08/07 15:13:59;;;;;;;;;;;;;;;;;;4974442;28;19925;-47
2023/08/07 15:16:25;;;;;;;;;;;;;;;;;;4974899;28;19910;-48
2023/08/07 15:18:51;;;;;;;;;;;;;;;;;;4974360;28;19949;-47
2023/08/07 15:21:18;;;;;;;;;;;;;;;;;;4974285;28;20021;-46
2023/08/07 15:23:44;;;;;;;;;;;;;;;;;;4974383;28;19910;-45
2023/08/07 15:26:10;;;;;;;;;;;;;;;;;;4984014;28;19980;-48
2023/08/07 15:28:36;;;;;;;;;;;;;;;;;;4976615;28;20340;-46
2023/08/07 15:31:01;;;;;;;;;;;;;;;;;;4980335;28;19913;-46
2023/08/07 15:33:27;;;;;;;;;;;;;;;;;;4992691;28;19914;-47
2023/08/07 15:35:53;;;;;;;;;;;;;;;;;;4992259;28;19941;-50
2023/08/07 15:38:19;;;;;;;;;;;;;;;;;;4991607;28;19985;-46
2023/08/07 15:40:45;;;;;;;;;;;;;;;;;;4992319;28;20427;-47
2023/08/07 15:43:11;;;;;;;;;;;;;;;;;;4992722;28;19924;-48
2023/08/07 15:45:37;;;;;;;;;;;;;;;;;;4992938;28;19920;-48
2023/08/07 15:48:03;;;;;;;;;;;;;;;;;;4984945;28;20059;-46
2023/08/07 15:50:30;;;;;;;;;;;;;;;;;;4977679;28;19914;-46
2023/08/07 15:52:56;;;;;;;;;;;;;;;;;;4978518;28;19969;-50
2023/08/07 15:55:22;;;;;;;;;;;;;;;;;;4973696;28;19917;-47
2023/08/07 15:57:48;;;;;;;;;;;;;;;;;;4973091;28;20297;-49
2023/08/07 16:00:14;;;;;;;;;;;;;;;;;;4971854;28;19958;-48
2023/08/07 16:02:40;;;;;;;;;;;;;;;;;;4973490;28;20333;-47
2023/08/07 16:05:06;;;;;;;;;;;;;;;;;;4972086;28;19910;-48
2023/08/07 16:07:32;;;;;;;;;;;;;;;;;;4972037;28;19957;-51
2023/08/07 16:09:58;;;;;;;;;;;;;;;;;;4969944;28;20288;-50
2023/08/07 16:12:24;;;;;;;;;;;;;;;;;;4971455;28;19914;-47
2023/08/07 16:14:49;;;;;;;;;;;;;;;;;;4972195;28;19914;-48
2023/08/07 16:17:15;;;;;;;;;;;;;;;;;;4975774;28;20270;-51
2023/08/07 16:19:41;;;;;;;;;;;;;;;;;;4990003;28;19913;-50
2023/08/07 16:22:07;;;;;;;;;;;;;;;;;;4990252;28;20463;-49
2023/08/07 16:24:33;;;;;;;;;;;;;;;;;;4971515;28;19960;-45
2023/08/07 16:26:59;;;;;;;;;;;;;;;;;;4976258;28;20074;-47
2023/08/07 16:29:25;;;;;;;;;;;;;;;;;;4975319;28;19914;-51
2023/08/07 16:31:51;;;;;;;;;;;;;;;;;;4970476;28;19969;-51
2023/08/07 16:34:16;;;;;;;;;;;;;;;;;;4972082;28;19910;-50
2023/08/07 16:36:42;;;;;;;;;;;;;;;;;;4979769;28;20016;-50
2023/08/07 16:39:08;;;;;;;;;;;;;;;;;;4975518;28;19914;-50
2023/08/07 16:41:34;;;;;;;;;;;;;;;;;;4969582;28;20312;-50
2023/08/07 16:44:00;;;;;;;;;;;;;;;;;;4969592;28;19969;-48
2023/08/07 16:46:26;;;;;;;;;;;;;;;;;;4952050;28;20448;-48
2023/08/07 16:48:52;;;;;;;;;;;;;;;;;;4967902;28;19921;-46
2023/08/07 16:51:21;;;;;;;;;;;;;;;;;;4967887;28;20052;-46
2023/08/07 16:53:47;;;;;;;;;;;;;;;;;;4970218;28;19921;-45
2023/08/07 16:56:13;;;;;;;;;;;;;;;;;;4969240;28;19922;-46
2023/08/07 16:58:39;;;;;;;;;;;;;;;;;;4967224;28;19989;-46
2023/08/07 17:01:05;;;;;;;;;;;;;;;;;;4967858;28;20009;-47
2023/08/07 17:03:31;;;;;;;;;;;;;;;;;;4968422;28;19993;-46
2023/08/07 17:05:57;;;;;;;;;;;;;;;;;;4956718;28;20412;-48
2023/08/07 17:08:23;;;;;;;;;;;;;;;;;;4976591;28;19986;-45
2023/08/07 17:10:49;;;;;;;;;;;;;;;;;;4970297;28;19984;-46
2023/08/07 17:13:15;;;;;;;;;;;;;;;;;;4945461;28;19989;-46
2023/08/07 17:15:42;;;;;;;;;;;;;;;;;;4966923;28;19970;-47
2023/08/07 17:18:08;;;;;;;;;;;;;;;;;;4966972;28;20585;-46
2023/08/07 17:20:34;;;;;;;;;;;;;;;;;;4967012;28;19920;-45
2023/08/07 17:23:00;;;;;;;;;;;;;;;;;;4968618;28;19922;-48
2023/08/07 17:25:26;;;;;;;;;;;;;;;;;;4968801;28;19964;-47
2023/08/07 17:27:51;;;;;;;;;;;;;;;;;;4967906;28;19922;-46
2023/08/07 17:30:17;;;;;;;;;;;;;;;;;;4967055;28;20017;-50
2023/08/07 17:32:43;;;;;;;;;;;;;;;;;;4968393;28;20342;-49
2023/08/07 17:35:09;;;;;;;;;;;;;;;;;;4967852;28;19925;-46
2023/08/07 17:37:35;;;;;;;;;;;;;;;;;;4965944;28;20428;-46
2023/08/07 17:40:01;;;;;;;;;;;;;;;;;;4949372;28;19956;-45
2023/08/07 17:42:27;;;;;;;;;;;;;;;;;;4967702;28;19922;-48
2023/08/07 17:44:54;;;;;;;;;;;;;;;;;;4966049;28;20401;-47
2023/08/07 17:47:20;;;;;;;;;;;;;;;;;;4949360;28;20467;-47
2023/08/07 17:49:45;;;;;;;;;;;;;;;;;;4966939;28;19918;-46
2023/08/07 17:52:12;;;;;;;;;;;;;;;;;;4966974;28;19914;-45
2023/08/07 17:54:38;;;;;;;;;;;;;;;;;;4968354;28;20521;-47
2023/08/07 17:57:04;;;;;;;;;;;;;;;;;;4968268;28;19973;-46
2023/08/07 17:59:30;;;;;;;;;;;;;;;;;;4975512;28;19914;-48
2023/08/07 18:01:55;;;;;;;;;;;;;;;;;;4960839;28;20258;-45
2023/08/07 18:04:21;;;;;;;;;;;;;;;;;;4967375;28;20006;-44
2023/08/07 18:06:48;;;;;;;;;;;;;;;;;;4969311;28;19921;-45
2023/08/07 18:09:14;;;;;;;;;;;;;;;;;;4949637;28;19937;-45
2023/08/07 18:11:40;;;;;;;;;;;;;;;;;;4970806;28;20324;-45
2023/08/07 18:14:06;;;;;;;;;;;;;;;;;;4967664;28;19921;-45
2023/08/07 18:16:32;;;;;;;;;;;;;;;;;;4970421;28;20407;-47
2023/08/07 18:18:59;;;;;;;;;;;;;;;;;;4968909;28;19964;-45
2023/08/07 18:21:25;;;;;;;;;;;;;;;;;;4968529;28;20001;-45
2023/08/07 18:23:51;;;;;;;;;;;;;;;;;;4968301;28;20501;-45
2023/08/07 18:26:17;;;;;;;;;;;;;;;;;;4968297;28;19922;-46
2023/08/07 18:28:42;;;;;;;;;;;;;;;;;;4969591;28;20413;-45
2023/08/07 18:31:09;;;;;;;;;;;;;;;;;;4967704;28;19922;-45
2023/08/07 18:33:35;;;;;;;;;;;;;;;;;;4968381;28;19914;-45
2023/08/07 18:36:00;;;;;;;;;;;;;;;;;;4968225;28;19918;-45
2023/08/07 18:38:26;;;;;;;;;;;;;;;;;;4970366;28;19910;-45
2023/08/07 18:40:52;;;;;;;;;;;;;;;;;;4969660;28;19940;-44
2023/08/07 18:43:18;;;;;;;;;;;;;;;;;;4968590;28;20016;-47
2023/08/07 18:45:44;;;;;;;;;;;;;;;;;;4971771;28;19942;-45
2023/08/07 18:48:10;;;;;;;;;;;;;;;;;;4960598;28;19922;-45
2023/08/07 18:50:36;;;;;;;;;;;;;;;;;;4973914;28;19994;-47
2023/08/07 18:53:02;;;;;;;;;;;;;;;;;;4968246;28;20397;-46
2023/08/07 18:55:27;;;;;;;;;;;;;;;;;;4970883;28;19924;-44
2023/08/07 18:57:53;;;;;;;;;;;;;;;;;;4950918;28;19925;-46
2023/08/07 19:00:19;;;;;;;;;;;;;;;;;;4953057;28;19930;-45
2023/08/07 19:02:45;;;;;;;;;;;;;;;;;;4966973;28;20009;-46
2023/08/07 19:05:11;;;;;;;;;;;;;;;;;;4969298;28;19918;-46
2023/08/07 19:07:37;;;;;;;;;;;;;;;;;;4969472;28;19926;-45
2023/08/07 19:10:03;;;;;;;;;;;;;;;;;;4968359;28;19918;-45
2023/08/07 19:12:29;;;;;;;;;;;;;;;;;;4951845;28;20446;-46
2023/08/07 19:14:55;;;;;;;;;;;;;;;;;;4952498;28;20293;-46
2023/08/07 19:17:21;;;;;;;;;;;;;;;;;;4951600;28;19917;-45
2023/08/07 19:19:47;;;;;;;;;;;;;;;;;;4951241;28;19918;-46
2023/08/07 19:22:13;;;;;;;;;;;;;;;;;;4967836;28;19964;-46
2023/08/07 19:24:39;;;;;;;;;;;;;;;;;;4967070;28;20634;-46
2023/08/07 19:27:04;;;;;;;;;;;;;;;;;;4968388;28;19918;-45
2023/08/07 19:29:30;;;;;;;;;;;;;;;;;;4971550;28;19910;-45
2023/08/07 19:31:56;;;;;;;;;;;;;;;;;;4968827;28;20012;-47
2023/08/07 19:34:22;;;;;;;;;;;;;;;;;;4968040;28;19918;-45
2023/08/07 19:36:51;;;;;;;;;;;;;;;;;;4969257;28;19914;-45
2023/08/07 19:39:17;;;;;;;;;;;;;;;;;;4969186;28;19918;-45
2023/08/07 19:41:43;;;;;;;;;;;;;;;;;;4973093;28;19918;-45
2023/08/07 19:44:09;;;;;;;;;;;;;;;;;;4969706;28;20267;-45
2023/08/07 19:46:35;;;;;;;;;;;;;;;;;;4950832;28;19925;-45
2023/08/07 19:49:01;;;;;;;;;;;;;;;;;;4969108;28;19914;-45
2023/08/07 19:51:27;;;;;;;;;;;;;;;;;;4966348;28;21904;-45
2023/08/07 19:53:52;;;;;;;;;;;;;;;;;;4969097;28;20275;-45
2023/08/07 19:56:18;;;;;;;;;;;;;;;;;;4969406;28;19921;-45
2023/08/07 19:58:44;;;;;;;;;;;;;;;;;;4968839;28;19914;-45
2023/08/07 20:01:10;;;;;;;;;;;;;;;;;;4950522;28;20291;-46
2023/08/07 20:03:36;;;;;;;;;;;;;;;;;;4967370;28;19961;-46
2023/08/07 20:06:02;;;;;;;;;;;;;;;;;;4941046;28;20408;-45
2023/08/07 20:08:28;;;;;;;;;;;;;;;;;;4964430;28;19920;-45
2023/08/07 20:10:54;;;;;;;;;;;;;;;;;;4969102;28;20000;-46
2023/08/07 20:13:19;;;;;;;;;;;;;;;;;;4945093;28;19914;-46
2023/08/07 20:15:45;;;;;;;;;;;;;;;;;;4963289;28;19992;-45
2023/08/07 20:18:11;;;;;;;;;;;;;;;;;;4968441;28;19948;-46
2023/08/07 20:20:37;;;;;;;;;;;;;;;;;;4971143;28;20478;-45
2023/08/07 20:23:03;;;;;;;;;;;;;;;;;;4969824;28;19925;-45
2023/08/07 20:25:29;;;;;;;;;;;;;;;;;;4968270;28;19914;-47
2023/08/07 20:27:55;;;;;;;;;;;;;;;;;;4940885;28;19919;-47
2023/08/07 20:30:21;;;;;;;;;;;;;;;;;;4964660;28;19921;-45
2023/08/07 20:32:47;;;;;;;;;;;;;;;;;;4966678;28;19925;-46
2023/08/07 20:35:12;;;;;;;;;;;;;;;;;;4965664;28;20292;-45
2023/08/07 20:37:38;;;;;;;;;;;;;;;;;;4967476;28;19938;-45
2023/08/07 20:40:04;;;;;;;;;;;;;;;;;;4970082;28;20385;-47
2023/08/07 20:42:30;;;;;;;;;;;;;;;;;;4967814;28;19972;-46
2023/08/07 20:44:56;;;;;;;;;;;;;;;;;;4974735;28;19921;-45
2023/08/07 20:47:22;;;;;;;;;;;;;;;;;;4989060;28;19913;-46
2023/08/07 20:49:48;;;;;;;;;;;;;;;;;;4988715;28;19914;-46
2023/08/07 20:52:14;;;;;;;;;;;;;;;;;;4988723;28;19921;-45
2023/08/07 20:54:40;;;;;;;;;;;;;;;;;;4982796;28;19910;-45
2023/08/07 20:57:06;;;;;;;;;;;;;;;;;;4971517;28;19941;-45
2023/08/07 20:59:32;;;;;;;;;;;;;;;;;;4977498;28;19910;-48
2023/08/07 21:01:57;;;;;;;;;;;;;;;;;;4988639;28;20278;-49
2023/08/07 21:04:25;;;;;;;;;;;;;;;;;;4988512;28;19910;-46
2023/08/07 21:06:52;;;;;;;;;;;;;;;;;;4988804;28;20344;-45
2023/08/07 21:09:18;;;;;;;;;;;;;;;;;;4973828;28;19910;-46
2023/08/07 21:11:44;;;;;;;;;;;;;;;;;;4952606;28;19917;-47
2023/08/07 21:14:10;;;;;;;;;;;;;;;;;;4968952;28;19910;-46
2023/08/07 21:16:36;;;;;;;;;;;;;;;;;;4975676;28;20308;-47
2023/08/07 21:19:02;;;;;;;;;;;;;;;;;;4974999;28;19914;-47
2023/08/07 21:21:28;;;;;;;;;;;;;;;;;;4972687;28;20432;-45
2023/08/07 21:23:54;;;;;;;;;;;;;;;;;;4976154;28;19925;-47
2023/08/07 21:26:20;;;;;;;;;;;;;;;;;;4970030;28;19969;-47
2023/08/07 21:28:45;;;;;;;;;;;;;;;;;;4969873;28;19942;-46
2023/08/07 21:31:11;;;;;;;;;;;;;;;;;;4953329;28;19910;-46
2023/08/07 21:33:39;;;;;;;;;;;;;;;;;;4970780;28;19964;-48
2023/08/07 21:36:05;;;;;;;;;;;;;;;;;;4973580;28;20322;-45
2023/08/07 21:38:31;;;;;;;;;;;;;;;;;;4973748;28;19918;-45
2023/08/07 21:40:57;;;;;;;;;;;;;;;;;;4973896;28;19921;-45
2023/08/07 21:43:23;;;;;;;;;;;;;;;;;;4973761;28;20052;-45
2023/08/07 21:45:49;;;;;;;;;;;;;;;;;;4973597;28;19964;-47
2023/08/07 21:48:15;;;;;;;;;;;;;;;;;;4973761;28;20339;-45
2023/08/07 21:50:41;;;;;;;;;;;;;;;;;;4973944;28;19910;-47
2023/08/07 21:53:07;;;;;;;;;;;;;;;;;;4973508;28;19941;-48
2023/08/07 21:55:33;;;;;;;;;;;;;;;;;;4973490;28;20300;-46
2023/08/07 21:57:59;;;;;;;;;;;;;;;;;;4973524;28;19910;-46